Time;durP1;ratioP1;P1;durP2;ratioP2;P2;SDS_P1;SDS_P2;PMS_P1;PMS_P2;Temp;Humidity;BMP_temperature;BMP_pressure;BME280_temperature;BME280_humidity;BME280_pressure;Samples;Min_cycle;Max_cycle;Signal;HPM_P1;HPM_P2
2022/03/23 00:02:07;;;;;;;8.80;6.03;;;2.40;49.60;;;;;;6235286;28;20201;-52
2022/03/23 00:05:08;;;;;;;8.43;5.87;;;2.40;49.50;;;;;;6267507;28;20202;-51
2022/03/23 00:08:09;;;;;;;9.70;5.40;;;2.30;50.00;;;;;;6268115;28;20221;-48
2022/03/23 00:11:10;;;;;;;10.67;5.53;;;2.30;50.10;;;;;;6251799;28;20181;-55
2022/03/23 00:14:10;;;;;;;7.43;5.50;;;2.30;50.40;;;;;;6226861;28;20201;-54
2022/03/23 00:17:12;;;;;;;7.37;5.53;;;2.20;50.40;;;;;;6259900;28;20189;-55
2022/03/23 00:20:13;;;;;;;8.20;6.37;;;2.20;50.30;;;;;;6276327;28;20196;-53
2022/03/23 00:23:14;;;;;;;7.53;5.53;;;2.10;50.60;;;;;;6212250;28;20237;-53
2022/03/23 00:26:15;;;;;;;8.03;5.60;;;2.10;50.60;;;;;;6226255;28;20249;-52
2022/03/23 00:29:19;;;;;;;7.27;5.63;;;2.00;50.70;;;;;;6259084;28;20210;-52
2022/03/23 00:32:19;;;;;;;9.63;6.37;;;2.00;50.80;;;;;;6258584;28;20201;-52
2022/03/23 00:35:21;;;;;;;7.40;5.27;;;2.00;51.00;;;;;;6259428;28;20178;-53
2022/03/23 00:38:22;;;;;;;8.20;5.37;;;1.90;51.30;;;;;;6275648;28;20231;-56
2022/03/23 00:41:23;;;;;;;6.53;5.17;;;1.90;51.40;;;;;;6268507;28;20201;-54
2022/03/23 00:44:24;;;;;;;9.93;5.70;;;1.90;51.30;;;;;;6258637;28;20194;-52
2022/03/23 00:47:25;;;;;;;8.30;5.10;;;1.80;51.50;;;;;;6275093;28;20220;-47
2022/03/23 00:50:26;;;;;;;6.73;5.27;;;1.80;51.60;;;;;;6258392;28;20221;-51
2022/03/23 00:53:27;;;;;;;10.13;6.20;;;1.80;51.90;;;;;;6266589;28;20202;-48
2022/03/23 00:56:29;;;;;;;9.70;5.20;;;1.70;52.00;;;;;;6266454;28;20198;-53
2022/03/23 00:59:30;;;;;;;7.47;5.13;;;1.70;52.00;;;;;;6250341;28;20186;-51
2022/03/23 01:02:35;;;;;;;8.97;5.27;;;1.70;52.20;;;;;;6250541;28;20183;-54
2022/03/23 01:05:36;;;;;;;9.07;5.53;;;1.70;52.30;;;;;;6266197;28;20206;-54
2022/03/23 01:08:37;;;;;;;6.37;4.50;;;1.70;52.20;;;;;;6250408;28;20210;-54
2022/03/23 01:11:39;;;;;;;7.30;5.03;;;1.70;52.30;;;;;;6249654;28;20221;-50
2022/03/23 01:14:41;;;;;;;6.60;4.80;;;1.60;52.60;;;;;;6249893;28;20190;-51
2022/03/23 01:17:43;;;;;;;7.60;5.00;;;1.60;52.80;;;;;;6245609;28;20194;-50
2022/03/23 01:20:43;;;;;;;5.30;4.40;;;1.60;52.60;;;;;;6257608;28;20193;-51
2022/03/23 01:23:45;;;;;;;11.67;5.63;;;1.60;52.50;;;;;;6257605;28;20204;-51
2022/03/23 01:26:46;;;;;;;6.67;4.93;;;1.60;52.70;;;;;;6259142;28;20676;-49
2022/03/23 01:29:47;;;;;;;7.97;5.47;;;1.60;52.50;;;;;;6291274;28;20182;-53
2022/03/23 01:32:48;;;;;;;9.47;5.77;;;1.50;52.70;;;;;;6290160;28;20193;-49
2022/03/23 01:35:48;;;;;;;9.57;4.97;;;1.50;52.80;;;;;;6290254;28;20193;-53
2022/03/23 01:38:51;;;;;;;8.23;5.60;;;1.50;52.60;;;;;;6290597;28;20194;-54
2022/03/23 01:41:52;;;;;;;5.97;5.10;;;1.60;52.80;;;;;;6276366;28;20254;-53
2022/03/23 01:44:52;;;;;;;8.87;4.97;;;1.50;53.00;;;;;;6299119;28;20212;-52
2022/03/23 01:47:53;;;;;;;6.20;4.53;;;1.40;52.90;;;;;;6274013;28;20205;-53
2022/03/23 01:50:55;;;;;;;10.20;4.87;;;1.40;52.90;;;;;;6290608;28;20193;-55
2022/03/23 01:53:56;;;;;;;5.93;4.13;;;1.30;52.80;;;;;;6288607;28;20194;-56
2022/03/23 01:56:58;;;;;;;7.07;5.47;;;1.30;53.20;;;;;;6290653;28;20203;-56
2022/03/23 01:59:59;;;;;;;5.77;4.77;;;1.30;53.50;;;;;;6258413;28;20195;-54
2022/03/23 02:03:00;;;;;;;7.87;5.37;;;1.30;53.80;;;;;;6286577;28;20196;-56
2022/03/23 02:06:00;;;;;;;8.90;5.87;;;1.20;54.00;;;;;;6289970;28;20189;-56
2022/03/23 02:09:02;;;;;;;10.97;5.40;;;1.30;54.00;;;;;;6279154;28;20185;-47
2022/03/23 02:12:08;;;;;;;9.10;5.00;;;1.20;54.10;;;;;;6289601;28;20182;-51
2022/03/23 02:15:11;;;;;;;6.13;4.93;;;1.20;54.30;;;;;;6265187;28;20187;-51
2022/03/23 02:18:12;;;;;;;9.03;5.20;;;1.20;54.20;;;;;;6265709;28;20197;-52
2022/03/23 02:21:14;;;;;;;9.07;5.03;;;1.30;54.30;;;;;;6256423;28;20664;-51
2022/03/23 02:24:16;;;;;;;8.03;5.07;;;1.20;54.00;;;;;;6289120;28;20204;-50
2022/03/23 02:27:18;;;;;;;9.20;5.20;;;1.20;54.40;;;;;;6306312;28;20248;-52
2022/03/23 02:30:19;;;;;;;7.60;4.93;;;1.20;54.20;;;;;;6290207;28;20190;-50
2022/03/23 02:33:21;;;;;;;6.97;5.20;;;1.20;54.40;;;;;;6250186;28;20213;-49
2022/03/23 02:36:21;;;;;;;8.03;5.57;;;1.10;54.40;;;;;;6256758;28;20186;-49
2022/03/23 02:39:23;;;;;;;10.17;5.53;;;1.20;54.50;;;;;;6273128;28;20186;-52
2022/03/23 02:42:23;;;;;;;10.27;5.07;;;1.20;54.70;;;;;;6247841;28;20205;-53
2022/03/23 02:45:24;;;;;;;8.83;5.73;;;1.20;54.90;;;;;;6248805;28;20193;-50
2022/03/23 02:48:25;;;;;;;8.57;5.53;;;1.10;54.60;;;;;;6256253;28;20246;-53
2022/03/23 02:51:26;;;;;;;6.70;5.13;;;1.10;54.90;;;;;;6273241;28;20189;-52
2022/03/23 03:04:38;;;;;;;9.83;4.80;;;1.00;55.30;;;;;;6264838;28;20195;-55
2022/03/23 03:10:58;;;;;;;8.70;4.77;;;1.00;55.40;;;;;;6290100;28;20178;-52
2022/03/23 03:13:59;;;;;;;7.20;5.20;;;0.90;55.60;;;;;;6293676;28;20238;-50
2022/03/23 03:17:00;;;;;;;7.23;4.97;;;0.90;55.60;;;;;;6258891;28;20225;-52
2022/03/23 03:20:02;;;;;;;9.47;6.13;;;0.90;55.60;;;;;;6268352;28;20226;-52
2022/03/23 03:23:03;;;;;;;8.37;5.63;;;0.90;56.00;;;;;;6240207;28;20205;-52
2022/03/23 03:26:07;;;;;;;7.73;5.47;;;0.80;55.80;;;;;;6284936;28;20242;-52
2022/03/23 03:29:08;;;;;;;8.67;6.27;;;0.80;56.20;;;;;;6250510;28;20190;-51
2022/03/23 03:32:09;;;;;;;8.97;6.53;;;0.80;56.20;;;;;;6243939;28;20247;-52
2022/03/23 03:35:11;;;;;;;7.93;5.87;;;0.80;56.30;;;;;;6241092;28;20195;-55
2022/03/23 03:38:11;;;;;;;10.20;5.87;;;0.80;56.40;;;;;;6269248;28;20282;-53
2022/03/23 03:41:13;;;;;;;8.17;5.33;;;0.80;56.70;;;;;;6277024;28;20197;-55
2022/03/23 03:44:14;;;;;;;6.60;4.80;;;0.80;56.80;;;;;;6253126;28;20193;-58
2022/03/23 03:47:15;;;;;;;6.67;4.90;;;0.70;56.60;;;;;;6268751;28;20213;-57
2022/03/23 03:50:15;;;;;;;9.13;5.93;;;0.60;56.90;;;;;;6271640;28;20193;-57
2022/03/23 03:53:16;;;;;;;10.27;5.40;;;0.60;56.90;;;;;;6280269;28;20649;-55
2022/03/23 03:56:17;;;;;;;10.53;5.33;;;0.70;56.70;;;;;;6291226;28;20192;-54
2022/03/23 03:59:18;;;;;;;9.17;5.10;;;0.60;56.60;;;;;;6280452;28;20189;-50
2022/03/23 04:02:19;;;;;;;10.70;7.13;;;0.60;56.90;;;;;;6266882;28;20199;-49
2022/03/23 04:05:20;;;;;;;7.97;5.13;;;0.50;57.60;;;;;;6269468;28;20193;-53
2022/03/23 04:08:21;;;;;;;8.47;5.30;;;0.50;57.40;;;;;;6262969;28;20307;-57
2022/03/23 04:11:21;;;;;;;11.93;6.00;;;0.50;57.10;;;;;;6257006;28;20399;-56
2022/03/23 04:14:22;;;;;;;8.07;5.90;;;0.40;57.30;;;;;;6273445;28;20192;-57
2022/03/23 04:17:23;;;;;;;6.33;4.80;;;0.30;57.60;;;;;;6276134;28;20193;-57
2022/03/23 04:20:24;;;;;;;9.10;5.53;;;0.30;57.80;;;;;;6275095;28;20254;-57
2022/03/23 04:23:25;;;;;;;10.73;5.67;;;0.30;57.80;;;;;;6272734;28;20204;-57
2022/03/23 04:26:26;;;;;;;8.70;5.50;;;0.30;57.90;;;;;;6275738;28;20236;-56
2022/03/23 04:29:27;;;;;;;7.97;5.10;;;0.30;57.90;;;;;;6265500;28;20192;-57
2022/03/23 04:32:28;;;;;;;8.63;5.37;;;0.30;58.30;;;;;;6272566;28;20266;-53
2022/03/23 04:35:29;;;;;;;7.60;5.27;;;0.10;58.90;;;;;;6276339;28;20198;-56
2022/03/23 04:38:29;;;;;;;9.70;5.13;;;0.10;58.80;;;;;;6277254;28;20196;-57
2022/03/23 04:41:30;;;;;;;8.97;5.50;;;0.10;58.70;;;;;;6274372;28;20189;-56
2022/03/23 04:44:31;;;;;;;7.53;5.57;;;0.10;58.80;;;;;;6274230;28;20203;-57
2022/03/23 04:47:33;;;;;;;9.23;5.27;;;0.10;59.10;;;;;;6274113;28;20215;-57
2022/03/23 04:50:34;;;;;;;7.67;5.50;;;0.10;59.10;;;;;;6271610;28;20327;-56
2022/03/23 04:53:35;;;;;;;8.13;5.07;;;0.10;59.20;;;;;;6257684;28;20194;-56
2022/03/23 04:56:36;;;;;;;7.30;4.57;;;0.10;59.00;;;;;;6265727;28;20191;-56
2022/03/23 04:59:36;;;;;;;6.03;4.80;;;0.20;59.10;;;;;;6262901;28;20193;-56
2022/03/23 05:02:38;;;;;;;7.00;5.40;;;0.10;59.10;;;;;;6241459;28;20190;-57
2022/03/23 05:05:39;;;;;;;9.87;5.40;;;0.20;59.00;;;;;;6257801;28;20193;-56
2022/03/23 05:08:40;;;;;;;10.33;5.80;;;0.10;59.10;;;;;;6277488;28;20225;-54
2022/03/23 05:11:41;;;;;;;9.47;5.27;;;0.10;59.20;;;;;;6264533;28;20245;-54
2022/03/23 05:14:41;;;;;;;6.97;5.73;;;0.20;59.10;;;;;;6250112;28;20265;-58
2022/03/23 05:17:44;;;;;;;7.47;5.30;;;0.20;59.30;;;;;;6232881;28;20200;-54
2022/03/23 05:20:45;;;;;;;9.53;5.40;;;0.30;59.30;;;;;;6263544;28;20293;-54
2022/03/23 05:23:46;;;;;;;9.00;5.67;;;0.30;59.10;;;;;;6248176;28;20205;-54
2022/03/23 05:26:47;;;;;;;8.60;5.37;;;0.50;59.10;;;;;;6275480;28;20237;-51
2022/03/23 05:29:48;;;;;;;7.67;5.87;;;0.50;59.00;;;;;;6278802;28;20189;-53
2022/03/23 05:32:49;;;;;;;8.33;6.67;;;0.50;58.70;;;;;;6274188;28;20213;-56
2022/03/23 05:35:49;;;;;;;8.33;6.37;;;0.60;58.70;;;;;;6274141;28;20259;-53
2022/03/23 05:38:50;;;;;;;10.40;6.87;;;0.70;58.60;;;;;;6269197;28;20204;-56
2022/03/23 05:41:51;;;;;;;9.07;5.97;;;0.80;58.50;;;;;;6275924;28;20189;-53
2022/03/23 05:44:52;;;;;;;8.33;5.30;;;0.80;58.40;;;;;;6281657;28;20281;-55
2022/03/23 05:47:53;;;;;;;7.90;6.20;;;0.80;58.30;;;;;;6262584;28;20251;-56
2022/03/23 05:50:54;;;;;;;7.87;4.77;;;0.90;58.20;;;;;;6284999;28;20189;-53
2022/03/23 05:53:55;;;;;;;7.17;5.03;;;0.90;58.30;;;;;;6285503;28;20242;-56
2022/03/23 05:56:56;;;;;;;8.17;6.07;;;1.00;58.30;;;;;;6275355;28;20265;-56
2022/03/23 05:59:57;;;;;;;7.87;5.93;;;1.10;58.00;;;;;;6279100;28;20199;-55
2022/03/23 06:02:58;;;;;;;8.33;5.00;;;1.10;58.00;;;;;;6288157;28;20284;-56
2022/03/23 06:05:58;;;;;;;6.80;4.83;;;1.20;57.90;;;;;;6271175;28;20200;-52
2022/03/23 06:08:59;;;;;;;10.83;5.43;;;1.30;57.90;;;;;;6284591;28;20316;-51
2022/03/23 06:12:01;;;;;;;7.27;4.63;;;1.30;58.00;;;;;;6273180;28;20190;-56
2022/03/23 06:15:03;;;;;;;8.60;4.40;;;1.40;58.00;;;;;;6279346;28;20352;-54
2022/03/23 06:18:04;;;;;;;7.17;4.57;;;1.50;57.80;;;;;;6248235;28;20204;-53
2022/03/23 06:21:06;;;;;;;8.17;5.57;;;1.60;57.90;;;;;;6275551;28;20200;-54
2022/03/23 06:24:06;;;;;;;10.83;5.03;;;1.70;57.70;;;;;;6290213;28;20203;-51
2022/03/23 06:27:07;;;;;;;7.77;4.60;;;1.80;56.70;;;;;;6274407;28;20248;-53
2022/03/23 06:30:08;;;;;;;6.70;4.43;;;1.90;56.40;;;;;;6275206;28;20193;-57
2022/03/23 06:33:09;;;;;;;6.17;4.57;;;2.10;55.20;;;;;;6294441;28;20203;-52
2022/03/23 06:36:10;;;;;;;6.40;4.60;;;2.20;55.20;;;;;;6288963;28;20237;-53
2022/03/23 06:39:11;;;;;;;7.07;4.97;;;2.30;55.00;;;;;;6273766;28;20204;-51
2022/03/23 06:42:12;;;;;;;5.70;4.37;;;2.40;54.90;;;;;;6272762;28;20266;-57
2022/03/23 06:45:12;;;;;;;8.10;4.70;;;2.40;54.60;;;;;;6275820;28;20194;-56
2022/03/23 06:48:13;;;;;;;6.97;4.47;;;2.50;54.70;;;;;;6280709;28;20213;-56
2022/03/23 06:51:15;;;;;;;4.97;4.10;;;2.50;54.30;;;;;;6274910;28;20189;-57
2022/03/23 06:54:17;;;;;;;6.47;4.40;;;2.70;53.20;;;;;;6300424;28;20184;-57
2022/03/23 06:57:18;;;;;;;7.17;4.90;;;2.80;52.40;;;;;;6278287;28;20221;-57
2022/03/23 07:00:19;;;;;;;7.63;4.97;;;2.90;51.90;;;;;;6293304;28;20198;-56
2022/03/23 07:03:19;;;;;;;5.77;4.57;;;3.20;50.20;;;;;;6260448;28;20301;-57
2022/03/23 07:06:20;;;;;;;6.63;4.53;;;3.30;50.00;;;;;;6294471;28;20284;-62
2022/03/23 07:09:33;;;;;;;6.60;4.13;;;3.50;49.70;;;;;;6277517;28;20188;-61
2022/03/23 07:12:33;;;;;;;8.77;4.03;;;3.70;48.90;;;;;;6292400;28;20190;-59
2022/03/23 07:15:34;;;;;;;7.90;4.70;;;3.80;48.40;;;;;;6286158;28;20204;-61
2022/03/23 07:18:35;;;;;;;8.00;4.93;;;3.90;47.90;;;;;;6268782;28;20253;-55
2022/03/23 07:21:36;;;;;;;6.63;3.97;;;4.10;47.70;;;;;;6258262;28;20209;-51
2022/03/23 07:24:37;;;;;;;6.83;4.20;;;4.20;47.20;;;;;;6284884;28;20193;-54
2022/03/23 07:27:38;;;;;;;7.60;3.93;;;4.30;48.10;;;;;;6276610;28;20249;-51
2022/03/23 07:30:40;;;;;;;5.80;4.50;;;4.50;47.20;;;;;;6260042;28;20196;-51
2022/03/23 07:33:41;;;;;;;10.30;4.50;;;4.60;47.40;;;;;;6276595;28;20252;-59
2022/03/23 07:36:42;;;;;;;10.27;5.27;;;4.80;47.10;;;;;;6260039;28;20207;-55
2022/03/23 07:39:43;;;;;;;10.37;3.80;;;4.80;47.30;;;;;;6260043;28;20198;-57
2022/03/23 07:42:45;;;;;;;7.80;4.47;;;4.90;47.00;;;;;;6262603;28;20200;-57
2022/03/23 07:45:47;;;;;;;6.03;4.13;;;4.90;46.70;;;;;;6251288;28;20201;-58
2022/03/23 07:48:47;;;;;;;6.63;3.90;;;5.00;46.60;;;;;;6260084;28;20228;-55
2022/03/23 07:51:48;;;;;;;6.20;3.93;;;5.10;46.80;;;;;;6276024;28;20181;-51
2022/03/23 07:54:49;;;;;;;6.20;4.47;;;5.20;46.60;;;;;;6276354;28;20201;-52
2022/03/23 07:57:50;;;;;;;5.80;4.27;;;5.30;46.30;;;;;;6257937;28;20224;-55
2022/03/23 08:00:51;;;;;;;5.93;4.50;;;5.50;45.70;;;;;;6259758;28;20189;-58
2022/03/23 08:03:52;;;;;;;5.60;4.00;;;5.70;45.20;;;;;;6251213;28;20202;-54
2022/03/23 08:06:53;;;;;;;4.23;3.20;;;5.80;45.20;;;;;;6257108;28;20217;-52
2022/03/23 08:09:54;;;;;;;10.03;5.03;;;6.00;44.50;;;;;;6271441;28;20319;-50
2022/03/23 08:12:55;;;;;;;6.60;3.90;;;6.30;44.00;;;;;;6260190;28;20227;-54
2022/03/23 08:15:56;;;;;;;5.23;3.57;;;6.30;44.20;;;;;;6272297;28;20275;-56
2022/03/23 08:18:57;;;;;;;7.77;4.10;;;6.40;43.90;;;;;;6256713;28;20201;-56
2022/03/23 08:21:58;;;;;;;3.53;3.23;;;6.60;43.40;;;;;;6254175;28;20275;-54
2022/03/23 08:24:58;;;;;;;6.60;4.00;;;6.80;42.90;;;;;;6261187;28;20189;-55
2022/03/23 08:28:00;;;;;;;5.30;3.63;;;7.10;42.10;;;;;;6269342;28;20265;-57
2022/03/23 08:31:01;;;;;;;5.50;3.60;;;7.30;41.50;;;;;;6259056;28;20186;-57
2022/03/23 08:34:04;;;;;;;9.83;4.30;;;7.40;40.50;;;;;;6273368;28;20294;-56
2022/03/23 08:37:05;;;;;;;6.33;4.83;;;7.60;39.80;;;;;;6257626;28;20190;-58
2022/03/23 08:40:06;;;;;;;4.67;3.77;;;8.20;38.40;;;;;;6220950;28;20224;-57
2022/03/23 08:43:07;;;;;;;6.07;3.57;;;8.40;38.10;;;;;;6241003;28;20228;-58
2022/03/23 08:46:08;;;;;;;7.67;3.47;;;8.70;37.20;;;;;;6241974;28;20204;-56
2022/03/23 08:49:09;;;;;;;6.10;3.90;;;8.90;36.50;;;;;;6241329;28;20220;-56
2022/03/23 08:52:10;;;;;;;3.60;3.23;;;9.10;36.30;;;;;;6258678;28;20260;-56
2022/03/23 08:55:14;;;;;;;7.00;3.17;;;9.30;36.10;;;;;;6253422;28;20240;-53
2022/03/23 08:58:15;;;;;;;4.57;3.60;;;9.40;34.70;;;;;;6222065;28;20201;-55
2022/03/23 09:01:16;;;;;;;3.97;2.77;;;9.60;34.50;;;;;;6241613;28;20189;-55
2022/03/23 09:04:18;;;;;;;4.97;3.37;;;9.70;34.80;;;;;;6257951;28;20193;-53
2022/03/23 09:07:18;;;;;;;3.70;2.43;;;9.70;34.10;;;;;;6241984;28;20259;-53
2022/03/23 09:10:20;;;;;;;5.23;3.40;;;9.80;34.70;;;;;;6228212;28;20197;-51
2022/03/23 09:13:21;;;;;;;5.03;3.20;;;9.80;34.50;;;;;;6257241;28;20261;-55
2022/03/23 09:16:22;;;;;;;3.60;2.60;;;9.90;34.10;;;;;;6257672;28;20276;-54
2022/03/23 09:19:23;;;;;;;4.27;2.40;;;10.00;34.00;;;;;;6262874;28;20188;-54
2022/03/23 09:22:24;;;;;;;3.37;2.83;;;10.00;33.80;;;;;;6233150;28;20184;-56
2022/03/23 09:25:25;;;;;;;4.73;2.90;;;10.20;32.90;;;;;;6235692;28;20229;-50
2022/03/23 09:28:26;;;;;;;3.70;2.73;;;10.30;32.50;;;;;;6273548;28;20237;-54
2022/03/23 09:31:26;;;;;;;4.17;3.10;;;10.50;31.30;;;;;;6257419;28;20284;-56
2022/03/23 09:34:27;;;;;;;3.87;2.83;;;10.80;29.90;;;;;;6256974;28;20198;-54
2022/03/23 09:40:51;;;;;;;5.07;3.90;;;11.10;29.60;;;;;;6243992;28;20205;-64
2022/03/23 09:43:53;;;;;;;5.80;4.17;;;11.30;30.30;;;;;;6238775;28;20191;-64
2022/03/23 09:46:56;;;;;;;7.27;3.33;;;11.30;29.80;;;;;;6250203;28;20210;-64
2022/03/23 09:49:57;;;;;;;5.37;3.53;;;11.30;30.10;;;;;;6257023;28;20190;-65
2022/03/23 09:52:59;;;;;;;7.10;3.10;;;11.40;29.70;;;;;;6274083;28;20284;-64
2022/03/23 09:56:02;;;;;;;3.27;2.63;;;11.40;28.70;;;;;;6274168;28;20181;-64
2022/03/23 09:59:06;;;;;;;11.30;3.33;;;11.70;29.00;;;;;;6257532;28;20177;-64
2022/03/23 10:02:49;;;;;;;7.00;3.03;;;11.80;29.60;;;;;;6257493;28;20263;-64
2022/03/23 10:06:17;;;;;;;6.20;3.17;;;11.80;28.70;;;;;;6264356;28;20198;-64
2022/03/23 10:09:36;;;;;;;6.30;3.50;;;12.00;28.20;;;;;;6257273;28;20220;-64
2022/03/23 10:13:15;;;;;;;9.07;3.60;;;12.10;27.70;;;;;;6251942;28;20474;-64
2022/03/23 10:17:03;;;;;;;4.93;4.43;;;12.20;28.40;;;;;;6232387;28;20210;-64
2022/03/23 10:20:04;;;;;;;10.03;6.23;;;12.30;28.40;;;;;;6232685;28;20187;-63
2022/03/23 10:23:06;;;;;;;7.50;5.07;;;12.40;27.80;;;;;;6214315;28;20193;-63
2022/03/23 10:26:14;;;;;;;9.63;4.40;;;12.60;27.30;;;;;;6258646;28;20233;-63
2022/03/23 10:29:23;;;;;;;5.37;4.23;;;12.80;26.50;;;;;;6256975;28;20304;-63
2022/03/23 10:32:42;;;;;;;7.63;4.07;;;12.90;25.50;;;;;;6240631;28;20308;-63
2022/03/23 10:35:43;;;;;;;6.90;4.30;;;13.10;27.00;;;;;;6256972;28;20193;-63
2022/03/23 10:38:44;;;;;;;5.40;3.90;;;13.20;25.40;;;;;;6257312;28;20628;-64
2022/03/23 10:41:57;;;;;;;4.73;3.50;;;13.20;24.00;;;;;;6223397;28;20201;-64
2022/03/23 10:45:20;;;;;;;7.63;4.37;;;13.40;22.80;;;;;;6256612;28;20178;-64
2022/03/23 10:48:21;;;;;;;6.30;3.90;;;13.60;23.40;;;;;;6257029;28;20202;-64
2022/03/23 10:51:35;;;;;;;4.83;3.63;;;13.60;23.20;;;;;;6256778;28;20189;-64
2022/03/23 10:54:36;;;;;;;9.40;4.00;;;13.70;21.90;;;;;;6223862;28;20197;-65
2022/03/23 10:58:16;;;;;;;7.63;4.50;;;13.60;22.20;;;;;;6239567;28;20193;-65
2022/03/23 11:01:17;;;;;;;6.53;3.90;;;13.90;22.60;;;;;;6274230;28;20189;-64
2022/03/23 11:04:17;;;;;;;6.33;3.80;;;14.00;25.00;;;;;;6256522;28;20256;-64
2022/03/23 11:07:30;;;;;;;8.57;4.50;;;14.30;25.00;;;;;;6223141;28;20217;-62
2022/03/23 11:17:29;;;;;;;4.83;3.50;;;15.00;26.30;;;;;;6195452;28;20203;-66
2022/03/23 11:20:40;;;;;;;5.90;3.80;;;15.00;22.20;;;;;;6231161;28;20197;-65
2022/03/23 11:23:40;;;;;;;3.73;3.00;;;15.30;21.90;;;;;;6256378;28;20263;-65
2022/03/23 11:26:41;;;;;;;4.13;3.50;;;15.30;21.40;;;;;;6255886;28;20234;-64
2022/03/23 11:29:43;;;;;;;3.93;3.37;;;15.30;21.90;;;;;;6255273;28;20201;-62
2022/03/23 11:32:44;;;;;;;7.53;3.73;;;15.30;21.00;;;;;;6257572;28;20171;-64
2022/03/23 11:35:48;;;;;;;5.43;3.20;;;15.50;22.40;;;;;;6243944;28;20194;-64
2022/03/23 11:38:52;;;;;;;4.37;3.37;;;15.70;21.10;;;;;;6260029;28;20207;-69
2022/03/23 11:41:53;;;;;;;7.87;3.60;;;16.00;18.80;;;;;;6270553;28;20213;-64
2022/03/23 11:44:54;;;;;;;5.27;3.73;;;16.70;20.70;;;;;;6243650;28;20193;-63
2022/03/23 11:48:01;;;;;;;3.90;3.40;;;17.00;20.30;;;;;;6243595;28;20217;-65
2022/03/23 11:51:27;;;;;;;12.40;4.03;;;16.90;21.50;;;;;;6260271;28;20185;-63
2022/03/23 11:58:05;;;;;;;6.43;4.17;;;17.00;21.50;;;;;;6259868;28;20201;-63
2022/03/23 12:01:12;;;;;;;4.90;3.43;;;17.40;19.50;;;;;;6271908;28;20274;-61
2022/03/23 12:04:33;;;;;;;5.03;3.43;;;17.70;18.90;;;;;;6235191;28;20192;-62
2022/03/23 12:07:46;;;;;;;5.00;3.80;;;17.60;18.90;;;;;;6234878;28;20210;-62
2022/03/23 12:10:47;;;;;;;4.43;3.53;;;17.80;18.90;;;;;;6218818;28;20192;-62
2022/03/23 12:13:58;;;;;;;5.60;4.33;;;18.00;20.40;;;;;;6244763;28;20202;-62
2022/03/23 12:17:03;;;;;;;4.63;3.73;;;18.50;18.80;;;;;;6236091;28;20197;-61
2022/03/23 12:20:10;;;;;;;4.97;3.80;;;18.60;18.40;;;;;;6268062;28;20230;-62
2022/03/23 12:23:14;;;;;;;5.00;4.30;;;19.30;18.50;;;;;;6223803;28;20203;-62
2022/03/23 12:26:34;;;;;;;6.10;3.77;;;20.60;16.90;;;;;;6225337;28;20235;-65
2022/03/23 12:29:39;;;;;;;5.67;3.40;;;22.20;15.00;;;;;;6275911;28;20198;-65
2022/03/23 12:32:40;;;;;;;6.53;3.70;;;23.80;14.70;;;;;;6259759;28;20183;-65
2022/03/23 12:35:47;;;;;;;4.83;3.97;;;25.50;13.50;;;;;;6275502;28;20206;-66
2022/03/23 12:38:58;;;;;;;4.60;4.03;;;25.80;13.00;;;;;;6258808;28;20202;-66
2022/03/23 12:42:15;;;;;;;5.67;3.80;;;26.70;12.50;;;;;;6259451;28;20170;-65
2022/03/23 12:45:18;;;;;;;4.07;3.63;;;27.50;12.20;;;;;;6274848;28;20217;-63
2022/03/23 12:58:48;;;;;;;7.30;3.53;;;26.80;13.30;;;;;;6270599;28;20233;-64
2022/03/23 13:02:19;;;;;;;8.17;3.60;;;26.00;13.20;;;;;;6257966;28;20222;-63
2022/03/23 13:05:21;;;;;;;5.87;3.47;;;26.50;11.80;;;;;;6258069;28;20244;-64
2022/03/23 13:08:32;;;;;;;5.37;3.80;;;26.50;11.30;;;;;;6257911;28;20217;-64
2022/03/23 13:11:34;;;;;;;4.53;3.37;;;26.60;11.70;;;;;;6291189;28;20285;-64
2022/03/23 13:14:35;;;;;;;4.50;3.10;;;26.50;11.90;;;;;;6274713;28;20343;-64
2022/03/23 13:17:39;;;;;;;3.20;2.90;;;27.80;11.10;;;;;;6258160;28;20202;-65
2022/03/23 13:20:49;;;;;;;5.20;3.07;;;27.00;10.60;;;;;;6290990;28;20230;-65
2022/03/23 13:23:54;;;;;;;3.37;2.90;;;26.10;11.20;;;;;;6257980;28;20187;-64
2022/03/23 13:26:56;;;;;;;3.53;2.77;;;25.80;12.80;;;;;;6257898;28;20332;-64
2022/03/23 13:30:04;;;;;;;3.00;2.70;;;26.20;12.20;;;;;;6287136;28;20197;-64
2022/03/23 13:33:15;;;;;;;6.47;3.33;;;26.30;11.80;;;;;;6305844;28;20253;-62
2022/03/23 13:36:23;;;;;;;3.73;2.83;;;26.70;11.70;;;;;;6249382;28;20171;-62
2022/03/23 13:39:25;;;;;;;5.63;2.83;;;26.40;11.70;;;;;;6249316;28;20289;-62
2022/03/23 13:46:01;;;;;;;6.57;3.33;;;26.00;10.90;;;;;;6263327;28;20207;-65
2022/03/23 13:49:06;;;;;;;4.87;3.43;;;25.70;11.40;;;;;;6295987;28;20222;-65
2022/03/23 13:52:06;;;;;;;3.77;3.47;;;25.00;11.70;;;;;;6256423;28;20191;-63
2022/03/23 13:55:09;;;;;;;4.67;3.63;;;25.10;12.30;;;;;;6289854;28;20225;-63
2022/03/23 13:58:10;;;;;;;5.03;3.57;;;24.70;13.10;;;;;;6290066;28;20178;-63
2022/03/23 14:01:11;;;;;;;4.10;3.70;;;25.00;13.30;;;;;;6307675;28;20199;-63
2022/03/23 14:04:15;;;;;;;4.60;3.33;;;25.00;12.60;;;;;;6273455;28;20197;-64
2022/03/23 14:07:16;;;;;;;4.60;3.50;;;25.30;11.80;;;;;;6290002;28;20225;-63
2022/03/23 14:10:16;;;;;;;4.93;3.30;;;25.10;12.50;;;;;;6277919;28;20190;-64
2022/03/23 14:13:17;;;;;;;3.37;3.07;;;25.20;12.40;;;;;;6289852;28;20239;-64
2022/03/23 14:16:23;;;;;;;4.80;3.40;;;24.80;12.00;;;;;;6273333;28;20213;-64
2022/03/23 14:19:27;;;;;;;5.40;3.30;;;25.00;12.50;;;;;;6243759;28;20280;-64
2022/03/23 14:22:28;;;;;;;3.53;3.23;;;25.20;12.60;;;;;;6290250;28;20201;-64
2022/03/23 14:25:29;;;;;;;5.87;3.37;;;25.20;13.20;;;;;;6292893;28;20213;-64
2022/03/23 14:28:30;;;;;;;6.63;3.97;;;25.40;12.80;;;;;;6298042;28;20237;-62
2022/03/23 14:31:31;;;;;;;5.60;3.40;;;25.50;12.10;;;;;;6298315;28;20234;-66
2022/03/23 14:34:36;;;;;;;7.27;3.97;;;25.60;12.40;;;;;;6266265;28;20253;-66
2022/03/23 14:37:42;;;;;;;5.83;3.60;;;25.80;13.10;;;;;;6281261;28;20266;-66
2022/03/23 14:40:53;;;;;;;3.90;3.50;;;26.00;12.30;;;;;;6287125;28;20185;-62
2022/03/23 14:43:55;;;;;;;3.30;2.97;;;26.50;12.30;;;;;;6253623;28;20252;-62
2022/03/23 14:46:59;;;;;;;3.47;3.13;;;27.30;12.40;;;;;;6281581;28;20237;-63
2022/03/23 14:49:59;;;;;;;4.27;3.30;;;30.80;10.90;;;;;;6262669;28;20304;-62
2022/03/23 14:53:02;;;;;;;4.20;3.30;;;35.50;8.10;;;;;;6289678;28;20187;-62
2022/03/23 14:56:03;;;;;;;6.30;3.97;;;37.30;7.60;;;;;;6289014;28;20194;-62
2022/03/23 14:59:05;;;;;;;13.40;4.07;;;38.30;7.40;;;;;;6272625;28;20224;-63
2022/03/23 15:02:06;;;;;;;10.50;3.70;;;40.60;6.80;;;;;;6289554;28;20192;-63
2022/03/23 15:13:15;;;;;;;8.17;3.67;;;40.90;6.60;;;;;;6280342;28;20281;-63
2022/03/23 15:15:10;;;;;;;4.43;3.20;;;41.60;5.50;;;;;;6286323;28;20217;-62
2022/03/23 15:18:12;;;;;;;5.93;4.13;;;41.70;5.50;;;;;;6286159;28;20226;-62
2022/03/23 15:21:12;;;;;;;4.80;3.67;;;41.40;5.70;;;;;;6268242;28;20197;-62
2022/03/23 15:24:14;;;;;;;5.50;3.00;;;40.20;5.90;;;;;;6311006;28;20251;-63
2022/03/23 15:27:15;;;;;;;3.90;3.40;;;37.10;7.20;;;;;;6285655;28;20328;-58
2022/03/23 15:30:16;;;;;;;4.50;3.27;;;34.20;8.50;;;;;;6275816;28;20182;-60
2022/03/23 15:33:19;;;;;;;4.07;3.40;;;30.40;10.60;;;;;;6273885;28;20273;-60
2022/03/23 15:36:22;;;;;;;4.57;3.97;;;29.20;10.60;;;;;;6274650;28;20200;-59
2022/03/23 15:39:23;;;;;;;4.50;3.63;;;28.00;11.30;;;;;;6289415;28;20211;-58
2022/03/23 15:45:54;;;;;;;6.33;3.53;;;25.60;12.40;;;;;;6294114;28;20205;-58
2022/03/23 15:48:56;;;;;;;4.97;3.37;;;25.70;12.30;;;;;;6272233;28;20305;-60
2022/03/23 15:51:57;;;;;;;6.43;3.77;;;25.40;12.70;;;;;;6272948;28;20286;-58
2022/03/23 15:54:57;;;;;;;3.63;3.00;;;24.30;14.60;;;;;;6291548;28;20187;-58
2022/03/23 15:57:58;;;;;;;5.53;3.23;;;23.70;15.20;;;;;;6270128;28;20244;-58
2022/03/23 16:00:59;;;;;;;4.97;3.53;;;23.40;14.90;;;;;;6278364;28;20196;-58
2022/03/23 16:04:00;;;;;;;4.20;3.17;;;23.10;15.70;;;;;;6314545;28;20189;-58
2022/03/23 16:07:02;;;;;;;3.40;3.10;;;22.80;15.80;;;;;;6314618;28;20223;-59
2022/03/23 16:10:06;;;;;;;7.33;4.20;;;22.80;15.60;;;;;;6316100;28;20272;-58
2022/03/23 16:13:09;;;;;;;7.67;3.90;;;22.50;15.30;;;;;;6280732;28;20389;-59
2022/03/23 16:16:11;;;;;;;5.73;3.53;;;22.30;15.20;;;;;;6294157;28;20205;-59
2022/03/23 16:19:13;;;;;;;3.90;3.33;;;22.30;15.00;;;;;;6274156;28;20194;-60
2022/03/23 16:22:13;;;;;;;6.33;4.07;;;22.20;15.30;;;;;;6310711;28;20246;-60
2022/03/23 16:25:19;;;;;;;8.70;3.80;;;22.10;16.70;;;;;;6315915;28;20202;-60
2022/03/23 16:28:21;;;;;;;5.53;3.40;;;21.70;17.20;;;;;;6314886;28;20233;-60
2022/03/23 16:31:23;;;;;;;4.10;3.50;;;21.40;18.20;;;;;;6292452;28;20228;-60
2022/03/23 16:34:24;;;;;;;4.70;3.70;;;21.20;18.50;;;;;;6253795;28;20281;-60
2022/03/23 16:37:25;;;;;;;6.07;3.30;;;20.80;18.70;;;;;;6271119;28;20267;-60
2022/03/23 16:40:26;;;;;;;6.00;3.53;;;20.60;18.90;;;;;;6295347;28;20200;-60
2022/03/23 16:43:26;;;;;;;6.17;3.70;;;20.40;16.80;;;;;;6288100;28;20218;-60
2022/03/23 16:46:36;;;;;;;6.77;3.73;;;20.20;18.40;;;;;;6279389;28;20300;-60
2022/03/23 16:49:37;;;;;;;8.30;3.43;;;20.00;18.20;;;;;;6289904;28;20199;-60
2022/03/23 16:52:38;;;;;;;4.20;3.80;;;19.70;20.10;;;;;;6245170;28;20259;-61